Airfield :
LOGIN :

Register | Disclaimer

   EN    FR    IT 

 










Legend :    VFR   Marginal VFR   IFR   Intensive IFR   Very Intensive IFR
Visi :
Ceiling :
>= 8 km
>= 3000ft
5 to 8 km
1000 to 3000 ft
1500m to 5 km
500 to 1000 ft
800 to 1500m
200 to 500 ft
< 800m
< 200 ft
Symbols :   Thunderstorms  Fog  Heavy snow  Heavy precipitations  Wind > 20 kt
SIGMETs :     Misc.  Thunderstorms  Icing  Turbulence  Mountain Waves  Volcanic Ashes







- Airport Elevation : 416 ft
- IATA code : OVD


LEAS - Asturias

CURRENT METAR :
  • 152300Z AUTO VRB01KT 9999 3500 NCD 12/10 Q1013

EXPIRED METARs :
  • 152230Z AUTO VRB02KT 9999 3400 NCD 12/10 Q1012
  • 152200Z AUTO 26003KT 9999 3400 NCD 11/10 Q1012
  • 152130Z VRB02KT 9999 FEW028 12/10 Q1012 NOSIG
  • 152100Z VRB01KT 9999 FEW028 13/10 Q1012 NOSIG
  • 152030Z 00000KT 9999 FEW028 SCT065 13/11 Q1011 NOSIG

TAF TAF LEAS
Valid from the 15 at 21:00 until the 16 at 21:00 UTC


152000Z 1521/1621 20005KT 9999 FEW030 TX19/1615Z TN10/1606Z
TEMPO 1612/1618 06010KT
PROB40
TEMPO 1618/1621 3000 BR
No reported NOTAMs for that airfield.



MET'MAP, your aeronautical weather chart ! - Copyright ORBIFLY December 2007 - Disclaimer

ORBIFLY MET'MAP TEAM :

Programming & Development : Alexandra Zaïnal
Concept & Development : Baudouin d'Aumeries
Co-Development & Prog : Marc-Olivier Méhu
Technical & hardware support : Manuel Goepfert

Contact : metmap@orbifly.com




SOURCES & CREDITS :

   NOAA